sensor_id;sensor_type;location;lat;lon;timestamp;P1;durP1;ratioP1;P2;durP2;ratioP2
11328;SDS011;5719;42.714;23.732;2022-08-21T00:00:54;10.55;;;3.15;;
11328;SDS011;5719;42.714;23.732;2022-08-21T00:03:22;10.82;;;3.33;;
11328;SDS011;5719;42.714;23.732;2022-08-21T00:05:50;12.25;;;4.10;;
11328;SDS011;5719;42.714;23.732;2022-08-21T00:08:17;9.15;;;3.28;;
11328;SDS011;5719;42.714;23.732;2022-08-21T00:10:45;7.78;;;3.15;;
11328;SDS011;5719;42.714;23.732;2022-08-21T00:13:13;11.57;;;3.83;;
11328;SDS011;5719;42.714;23.732;2022-08-21T00:15:40;8.85;;;3.63;;
11328;SDS011;5719;42.714;23.732;2022-08-21T00:18:08;11.00;;;3.30;;
11328;SDS011;5719;42.714;23.732;2022-08-21T00:20:38;8.38;;;3.58;;
11328;SDS011;5719;42.714;23.732;2022-08-21T00:23:06;10.20;;;3.17;;
11328;SDS011;5719;42.714;23.732;2022-08-21T00:25:34;10.52;;;3.30;;
11328;SDS011;5719;42.714;23.732;2022-08-21T00:28:01;5.50;;;3.17;;
11328;SDS011;5719;42.714;23.732;2022-08-21T00:30:29;4.35;;;2.53;;
11328;SDS011;5719;42.714;23.732;2022-08-21T00:32:57;4.15;;;2.67;;
11328;SDS011;5719;42.714;23.732;2022-08-21T00:35:26;8.95;;;2.80;;
11328;SDS011;5719;42.714;23.732;2022-08-21T00:37:56;5.82;;;2.53;;
11328;SDS011;5719;42.714;23.732;2022-08-21T00:40:24;6.22;;;3.00;;
11328;SDS011;5719;42.714;23.732;2022-08-21T00:42:54;5.90;;;2.83;;
11328;SDS011;5719;42.714;23.732;2022-08-21T00:45:22;8.20;;;2.90;;
11328;SDS011;5719;42.714;23.732;2022-08-21T00:47:49;11.82;;;3.30;;
11328;SDS011;5719;42.714;23.732;2022-08-21T00:50:16;7.90;;;2.47;;
11328;SDS011;5719;42.714;23.732;2022-08-21T00:52:44;6.80;;;3.35;;
11328;SDS011;5719;42.714;23.732;2022-08-21T00:55:14;10.57;;;2.95;;
11328;SDS011;5719;42.714;23.732;2022-08-21T00:57:42;13.65;;;3.45;;
11328;SDS011;5719;42.714;23.732;2022-08-21T01:00:14;12.02;;;3.08;;
11328;SDS011;5719;42.714;23.732;2022-08-21T01:02:43;6.13;;;2.70;;
11328;SDS011;5719;42.714;23.732;2022-08-21T01:05:12;9.18;;;2.72;;
11328;SDS011;5719;42.714;23.732;2022-08-21T01:07:40;5.32;;;2.55;;
11328;SDS011;5719;42.714;23.732;2022-08-21T01:10:07;15.88;;;3.15;;
11328;SDS011;5719;42.714;23.732;2022-08-21T01:12:37;8.25;;;2.88;;
11328;SDS011;5719;42.714;23.732;2022-08-21T01:15:05;10.95;;;2.80;;
11328;SDS011;5719;42.714;23.732;2022-08-21T01:17:34;6.22;;;2.67;;
11328;SDS011;5719;42.714;23.732;2022-08-21T01:20:03;11.23;;;2.72;;
11328;SDS011;5719;42.714;23.732;2022-08-21T01:22:34;6.82;;;2.78;;
11328;SDS011;5719;42.714;23.732;2022-08-21T01:25:01;10.57;;;2.80;;
11328;SDS011;5719;42.714;23.732;2022-08-21T01:27:28;8.18;;;2.83;;
11328;SDS011;5719;42.714;23.732;2022-08-21T01:29:56;12.27;;;2.92;;
11328;SDS011;5719;42.714;23.732;2022-08-21T01:32:27;9.65;;;3.08;;
11328;SDS011;5719;42.714;23.732;2022-08-21T01:34:56;9.55;;;3.00;;
11328;SDS011;5719;42.714;23.732;2022-08-21T01:37:23;10.45;;;3.45;;
11328;SDS011;5719;42.714;23.732;2022-08-21T01:39:51;9.88;;;3.40;;
11328;SDS011;5719;42.714;23.732;2022-08-21T01:42:18;8.70;;;3.80;;
11328;SDS011;5719;42.714;23.732;2022-08-21T01:44:45;7.85;;;3.60;;
11328;SDS011;5719;42.714;23.732;2022-08-21T01:47:13;13.90;;;4.38;;
11328;SDS011;5719;42.714;23.732;2022-08-21T01:49:41;8.35;;;3.78;;
11328;SDS011;5719;42.714;23.732;2022-08-21T01:52:09;12.63;;;4.18;;
11328;SDS011;5719;42.714;23.732;2022-08-21T01:54:36;8.45;;;4.03;;
11328;SDS011;5719;42.714;23.732;2022-08-21T01:57:05;9.65;;;3.40;;
11328;SDS011;5719;42.714;23.732;2022-08-21T01:59:32;9.02;;;3.35;;
11328;SDS011;5719;42.714;23.732;2022-08-21T02:01:59;17.17;;;3.92;;
11328;SDS011;5719;42.714;23.732;2022-08-21T02:04:26;7.82;;;3.40;;
11328;SDS011;5719;42.714;23.732;2022-08-21T02:06:53;10.93;;;3.53;;
11328;SDS011;5719;42.714;23.732;2022-08-21T02:09:20;8.48;;;3.60;;
11328;SDS011;5719;42.714;23.732;2022-08-21T02:11:47;12.77;;;3.10;;
11328;SDS011;5719;42.714;23.732;2022-08-21T02:14:16;10.25;;;3.55;;
11328;SDS011;5719;42.714;23.732;2022-08-21T02:16:43;18.20;;;3.50;;
11328;SDS011;5719;42.714;23.732;2022-08-21T02:19:11;13.05;;;3.08;;
11328;SDS011;5719;42.714;23.732;2022-08-21T02:21:40;7.85;;;3.00;;
11328;SDS011;5719;42.714;23.732;2022-08-21T02:24:08;10.82;;;3.35;;
11328;SDS011;5719;42.714;23.732;2022-08-21T02:26:35;12.50;;;3.15;;
11328;SDS011;5719;42.714;23.732;2022-08-21T02:29:02;13.65;;;3.55;;
11328;SDS011;5719;42.714;23.732;2022-08-21T02:31:32;16.70;;;3.75;;
11328;SDS011;5719;42.714;23.732;2022-08-21T02:33:59;8.65;;;3.53;;
11328;SDS011;5719;42.714;23.732;2022-08-21T02:36:26;11.30;;;4.80;;
11328;SDS011;5719;42.714;23.732;2022-08-21T02:38:53;16.13;;;6.70;;
11328;SDS011;5719;42.714;23.732;2022-08-21T02:41:21;16.52;;;8.82;;
11328;SDS011;5719;42.714;23.732;2022-08-21T02:43:48;19.30;;;9.15;;
11328;SDS011;5719;42.714;23.732;2022-08-21T02:46:16;8.48;;;6.68;;
11328;SDS011;5719;42.714;23.732;2022-08-21T02:48:46;15.25;;;9.02;;
11328;SDS011;5719;42.714;23.732;2022-08-21T02:51:14;12.07;;;8.57;;
11328;SDS011;5719;42.714;23.732;2022-08-21T02:53:44;18.83;;;8.60;;
11328;SDS011;5719;42.714;23.732;2022-08-21T02:56:16;13.82;;;9.80;;
11328;SDS011;5719;42.714;23.732;2022-08-21T02:58:45;15.30;;;8.75;;
11328;SDS011;5719;42.714;23.732;2022-08-21T03:01:14;15.13;;;8.23;;
11328;SDS011;5719;42.714;23.732;2022-08-21T03:03:43;17.83;;;8.80;;
11328;SDS011;5719;42.714;23.732;2022-08-21T03:06:14;13.18;;;8.77;;
11328;SDS011;5719;42.714;23.732;2022-08-21T03:08:43;11.23;;;8.23;;
11328;SDS011;5719;42.714;23.732;2022-08-21T03:11:13;12.77;;;8.75;;
11328;SDS011;5719;42.714;23.732;2022-08-21T03:13:40;12.60;;;9.13;;
11328;SDS011;5719;42.714;23.732;2022-08-21T03:16:07;17.95;;;9.10;;
11328;SDS011;5719;42.714;23.732;2022-08-21T03:18:35;14.13;;;9.07;;
11328;SDS011;5719;42.714;23.732;2022-08-21T03:21:02;12.45;;;8.80;;
11328;SDS011;5719;42.714;23.732;2022-08-21T03:23:31;12.65;;;8.32;;
11328;SDS011;5719;42.714;23.732;2022-08-21T03:25:58;13.60;;;9.15;;
11328;SDS011;5719;42.714;23.732;2022-08-21T03:28:25;16.30;;;9.65;;
11328;SDS011;5719;42.714;23.732;2022-08-21T03:30:52;15.43;;;9.55;;
11328;SDS011;5719;42.714;23.732;2022-08-21T03:33:19;18.02;;;9.95;;
11328;SDS011;5719;42.714;23.732;2022-08-21T03:35:47;13.55;;;9.88;;
11328;SDS011;5719;42.714;23.732;2022-08-21T03:38:19;17.85;;;10.55;;
11328;SDS011;5719;42.714;23.732;2022-08-21T03:40:48;14.90;;;10.68;;
11328;SDS011;5719;42.714;23.732;2022-08-21T03:43:15;18.00;;;11.82;;
11328;SDS011;5719;42.714;23.732;2022-08-21T03:45:42;18.17;;;11.80;;
11328;SDS011;5719;42.714;23.732;2022-08-21T03:48:09;20.17;;;12.15;;
11328;SDS011;5719;42.714;23.732;2022-08-21T03:50:38;21.67;;;12.20;;
11328;SDS011;5719;42.714;23.732;2022-08-21T03:53:07;19.45;;;11.25;;
11328;SDS011;5719;42.714;23.732;2022-08-21T03:55:35;18.98;;;11.73;;
11328;SDS011;5719;42.714;23.732;2022-08-21T03:58:03;19.40;;;11.57;;
11328;SDS011;5719;42.714;23.732;2022-08-21T04:00:30;19.92;;;11.60;;
11328;SDS011;5719;42.714;23.732;2022-08-21T04:02:57;19.17;;;12.00;;
11328;SDS011;5719;42.714;23.732;2022-08-21T04:05:25;21.60;;;12.20;;
11328;SDS011;5719;42.714;23.732;2022-08-21T04:07:56;15.15;;;11.57;;
11328;SDS011;5719;42.714;23.732;2022-08-21T04:10:24;21.27;;;12.73;;
11328;SDS011;5719;42.714;23.732;2022-08-21T04:12:52;16.15;;;11.23;;
11328;SDS011;5719;42.714;23.732;2022-08-21T04:15:21;23.20;;;11.68;;
11328;SDS011;5719;42.714;23.732;2022-08-21T04:17:49;19.10;;;10.35;;
11328;SDS011;5719;42.714;23.732;2022-08-21T04:20:16;15.73;;;10.40;;
11328;SDS011;5719;42.714;23.732;2022-08-21T04:22:43;19.17;;;11.85;;
11328;SDS011;5719;42.714;23.732;2022-08-21T04:25:10;18.80;;;12.10;;
11328;SDS011;5719;42.714;23.732;2022-08-21T04:27:37;17.40;;;11.02;;
11328;SDS011;5719;42.714;23.732;2022-08-21T04:30:05;14.98;;;10.75;;
11328;SDS011;5719;42.714;23.732;2022-08-21T04:32:35;15.77;;;11.07;;
11328;SDS011;5719;42.714;23.732;2022-08-21T04:35:04;17.30;;;10.77;;
11328;SDS011;5719;42.714;23.732;2022-08-21T04:37:32;18.08;;;10.93;;
11328;SDS011;5719;42.714;23.732;2022-08-21T04:40:00;20.08;;;11.60;;
11328;SDS011;5719;42.714;23.732;2022-08-21T04:42:27;16.25;;;11.65;;
11328;SDS011;5719;42.714;23.732;2022-08-21T04:44:54;17.63;;;10.98;;
11328;SDS011;5719;42.714;23.732;2022-08-21T04:47:22;17.83;;;10.45;;
11328;SDS011;5719;42.714;23.732;2022-08-21T04:49:51;15.38;;;9.52;;
11328;SDS011;5719;42.714;23.732;2022-08-21T04:52:19;15.93;;;8.60;;
11328;SDS011;5719;42.714;23.732;2022-08-21T04:54:48;12.90;;;7.95;;
11328;SDS011;5719;42.714;23.732;2022-08-21T04:57:18;12.10;;;7.78;;
11328;SDS011;5719;42.714;23.732;2022-08-21T04:59:46;15.63;;;7.78;;
11328;SDS011;5719;42.714;23.732;2022-08-21T05:02:17;9.38;;;7.13;;
11328;SDS011;5719;42.714;23.732;2022-08-21T05:04:50;12.90;;;8.05;;
11328;SDS011;5719;42.714;23.732;2022-08-21T05:07:22;12.27;;;8.50;;
11328;SDS011;5719;42.714;23.732;2022-08-21T05:09:52;10.73;;;8.05;;
11328;SDS011;5719;42.714;23.732;2022-08-21T05:12:20;13.52;;;8.35;;
11328;SDS011;5719;42.714;23.732;2022-08-21T05:14:47;11.32;;;8.27;;
11328;SDS011;5719;42.714;23.732;2022-08-21T05:17:14;14.90;;;7.38;;
11328;SDS011;5719;42.714;23.732;2022-08-21T05:19:41;11.57;;;6.82;;
11328;SDS011;5719;42.714;23.732;2022-08-21T05:22:10;16.15;;;8.88;;
11328;SDS011;5719;42.714;23.732;2022-08-21T05:24:37;16.42;;;9.10;;
11328;SDS011;5719;42.714;23.732;2022-08-21T05:27:04;13.52;;;8.50;;
11328;SDS011;5719;42.714;23.732;2022-08-21T05:29:32;14.38;;;9.43;;
11328;SDS011;5719;42.714;23.732;2022-08-21T05:31:59;15.32;;;9.45;;
11328;SDS011;5719;42.714;23.732;2022-08-21T05:34:26;15.88;;;9.90;;
11328;SDS011;5719;42.714;23.732;2022-08-21T05:36:53;20.10;;;8.85;;
11328;SDS011;5719;42.714;23.732;2022-08-21T05:39:22;12.00;;;8.73;;
11328;SDS011;5719;42.714;23.732;2022-08-21T05:41:49;13.52;;;9.10;;
11328;SDS011;5719;42.714;23.732;2022-08-21T05:44:16;13.02;;;8.82;;
11328;SDS011;5719;42.714;23.732;2022-08-21T05:46:43;11.23;;;8.57;;
11328;SDS011;5719;42.714;23.732;2022-08-21T05:49:10;16.27;;;8.63;;
11328;SDS011;5719;42.714;23.732;2022-08-21T05:51:39;11.43;;;8.07;;
11328;SDS011;5719;42.714;23.732;2022-08-21T05:54:06;13.10;;;8.82;;
11328;SDS011;5719;42.714;23.732;2022-08-21T05:56:34;11.32;;;7.70;;
11328;SDS011;5719;42.714;23.732;2022-08-21T05:59:11;10.45;;;7.10;;
11328;SDS011;5719;42.714;23.732;2022-08-21T06:01:38;9.93;;;5.95;;
11328;SDS011;5719;42.714;23.732;2022-08-21T06:04:06;8.05;;;6.00;;
11328;SDS011;5719;42.714;23.732;2022-08-21T06:06:33;8.70;;;5.20;;
11328;SDS011;5719;42.714;23.732;2022-08-21T06:09:01;9.70;;;5.30;;
11328;SDS011;5719;42.714;23.732;2022-08-21T06:11:29;8.75;;;4.88;;
11328;SDS011;5719;42.714;23.732;2022-08-21T06:13:58;8.82;;;3.97;;
11328;SDS011;5719;42.714;23.732;2022-08-21T06:16:26;15.02;;;3.78;;
11328;SDS011;5719;42.714;23.732;2022-08-21T06:18:55;10.48;;;3.88;;
11328;SDS011;5719;42.714;23.732;2022-08-21T06:21:22;9.10;;;3.35;;
11328;SDS011;5719;42.714;23.732;2022-08-21T06:23:49;10.20;;;3.42;;
11328;SDS011;5719;42.714;23.732;2022-08-21T06:26:16;11.40;;;2.97;;
11328;SDS011;5719;42.714;23.732;2022-08-21T06:28:43;13.55;;;3.40;;
11328;SDS011;5719;42.714;23.732;2022-08-21T06:31:13;7.43;;;3.20;;
11328;SDS011;5719;42.714;23.732;2022-08-21T06:33:42;7.88;;;3.28;;
11328;SDS011;5719;42.714;23.732;2022-08-21T06:36:09;7.18;;;2.75;;
11328;SDS011;5719;42.714;23.732;2022-08-21T06:38:36;12.63;;;2.80;;
11328;SDS011;5719;42.714;23.732;2022-08-21T06:41:04;11.45;;;3.05;;
11328;SDS011;5719;42.714;23.732;2022-08-21T06:43:32;11.68;;;3.20;;
11328;SDS011;5719;42.714;23.732;2022-08-21T06:45:59;12.68;;;3.28;;
11328;SDS011;5719;42.714;23.732;2022-08-21T06:48:28;10.55;;;3.03;;
11328;SDS011;5719;42.714;23.732;2022-08-21T06:50:57;10.40;;;2.92;;
11328;SDS011;5719;42.714;23.732;2022-08-21T06:53:24;10.75;;;2.80;;
11328;SDS011;5719;42.714;23.732;2022-08-21T06:55:52;8.07;;;3.30;;
11328;SDS011;5719;42.714;23.732;2022-08-21T06:58:19;14.82;;;3.10;;
11328;SDS011;5719;42.714;23.732;2022-08-21T07:00:47;12.50;;;3.33;;
11328;SDS011;5719;42.714;23.732;2022-08-21T07:03:17;9.50;;;3.97;;
11328;SDS011;5719;42.714;23.732;2022-08-21T07:05:47;9.30;;;3.97;;
11328;SDS011;5719;42.714;23.732;2022-08-21T07:08:16;12.52;;;4.25;;
11328;SDS011;5719;42.714;23.732;2022-08-21T07:10:44;12.57;;;3.85;;
11328;SDS011;5719;42.714;23.732;2022-08-21T07:13:12;11.85;;;3.55;;
11328;SDS011;5719;42.714;23.732;2022-08-21T07:15:39;12.68;;;3.67;;
11328;SDS011;5719;42.714;23.732;2022-08-21T07:18:06;8.10;;;3.65;;
11328;SDS011;5719;42.714;23.732;2022-08-21T07:20:33;9.30;;;3.38;;
11328;SDS011;5719;42.714;23.732;2022-08-21T07:23:03;13.80;;;3.40;;
11328;SDS011;5719;42.714;23.732;2022-08-21T07:25:32;13.70;;;3.22;;
11328;SDS011;5719;42.714;23.732;2022-08-21T07:27:59;9.73;;;3.33;;
11328;SDS011;5719;42.714;23.732;2022-08-21T07:30:26;12.07;;;3.63;;
11328;SDS011;5719;42.714;23.732;2022-08-21T07:32:54;15.02;;;3.78;;
11328;SDS011;5719;42.714;23.732;2022-08-21T07:35:21;12.13;;;3.03;;
11328;SDS011;5719;42.714;23.732;2022-08-21T07:37:49;11.07;;;3.30;;
11328;SDS011;5719;42.714;23.732;2022-08-21T07:40:18;18.83;;;3.17;;
11328;SDS011;5719;42.714;23.732;2022-08-21T07:42:47;11.88;;;3.22;;
11328;SDS011;5719;42.714;23.732;2022-08-21T07:45:17;8.57;;;3.25;;
11328;SDS011;5719;42.714;23.732;2022-08-21T07:47:45;10.13;;;3.13;;
11328;SDS011;5719;42.714;23.732;2022-08-21T07:50:13;7.68;;;2.78;;
11328;SDS011;5719;42.714;23.732;2022-08-21T07:52:41;10.60;;;3.72;;
11328;SDS011;5719;42.714;23.732;2022-08-21T07:55:10;9.18;;;3.00;;
11328;SDS011;5719;42.714;23.732;2022-08-21T07:57:40;10.88;;;3.25;;
11328;SDS011;5719;42.714;23.732;2022-08-21T08:00:08;12.13;;;3.45;;
11328;SDS011;5719;42.714;23.732;2022-08-21T08:02:38;8.25;;;3.38;;
11328;SDS011;5719;42.714;23.732;2022-08-21T08:05:07;11.45;;;3.53;;
11328;SDS011;5719;42.714;23.732;2022-08-21T08:07:36;12.00;;;3.85;;
11328;SDS011;5719;42.714;23.732;2022-08-21T08:10:04;8.73;;;3.92;;
11328;SDS011;5719;42.714;23.732;2022-08-21T08:12:33;8.23;;;3.63;;
11328;SDS011;5719;42.714;23.732;2022-08-21T08:15:04;14.80;;;3.40;;
11328;SDS011;5719;42.714;23.732;2022-08-21T08:17:33;11.57;;;3.28;;
11328;SDS011;5719;42.714;23.732;2022-08-21T08:20:03;7.63;;;3.55;;
11328;SDS011;5719;42.714;23.732;2022-08-21T08:22:33;12.10;;;3.70;;
11328;SDS011;5719;42.714;23.732;2022-08-21T08:25:02;10.30;;;3.80;;
11328;SDS011;5719;42.714;23.732;2022-08-21T08:27:30;14.80;;;4.03;;
11328;SDS011;5719;42.714;23.732;2022-08-21T08:29:57;11.18;;;4.28;;
11328;SDS011;5719;42.714;23.732;2022-08-21T08:32:26;8.10;;;3.85;;
11328;SDS011;5719;42.714;23.732;2022-08-21T08:34:53;12.65;;;4.15;;
11328;SDS011;5719;42.714;23.732;2022-08-21T08:37:21;14.07;;;4.82;;
11328;SDS011;5719;42.714;23.732;2022-08-21T08:39:48;11.63;;;4.20;;
11328;SDS011;5719;42.714;23.732;2022-08-21T08:42:16;10.45;;;4.10;;
11328;SDS011;5719;42.714;23.732;2022-08-21T08:44:49;11.65;;;4.38;;
11328;SDS011;5719;42.714;23.732;2022-08-21T08:47:23;10.02;;;4.43;;
11328;SDS011;5719;42.714;23.732;2022-08-21T08:49:55;9.68;;;4.45;;
11328;SDS011;5719;42.714;23.732;2022-08-21T08:55:05;8.65;;;4.20;;
11328;SDS011;5719;42.714;23.732;2022-08-21T08:57:35;10.05;;;4.80;;
11328;SDS011;5719;42.714;23.732;2022-08-21T09:00:05;14.48;;;5.25;;
11328;SDS011;5719;42.714;23.732;2022-08-21T09:02:36;8.35;;;4.60;;
11328;SDS011;5719;42.714;23.732;2022-08-21T09:05:05;13.05;;;4.93;;
11328;SDS011;5719;42.714;23.732;2022-08-21T09:07:35;10.65;;;4.97;;
11328;SDS011;5719;42.714;23.732;2022-08-21T09:10:12;9.25;;;4.70;;
11328;SDS011;5719;42.714;23.732;2022-08-21T09:12:47;12.88;;;4.70;;
11328;SDS011;5719;42.714;23.732;2022-08-21T09:15:22;12.30;;;5.35;;
11328;SDS011;5719;42.714;23.732;2022-08-21T09:21:07;11.20;;;5.35;;
11328;SDS011;5719;42.714;23.732;2022-08-21T09:23:50;11.40;;;5.15;;
11328;SDS011;5719;42.714;23.732;2022-08-21T09:26:23;12.52;;;5.18;;
11328;SDS011;5719;42.714;23.732;2022-08-21T09:28:53;9.45;;;4.90;;
11328;SDS011;5719;42.714;23.732;2022-08-21T09:31:25;10.40;;;5.13;;
11328;SDS011;5719;42.714;23.732;2022-08-21T09:33:59;8.85;;;5.40;;
11328;SDS011;5719;42.714;23.732;2022-08-21T09:36:29;17.75;;;6.15;;
11328;SDS011;5719;42.714;23.732;2022-08-21T09:39:02;12.35;;;5.63;;
11328;SDS011;5719;42.714;23.732;2022-08-21T09:41:31;15.27;;;5.53;;
11328;SDS011;5719;42.714;23.732;2022-08-21T09:44:00;12.57;;;5.32;;
11328;SDS011;5719;42.714;23.732;2022-08-21T09:46:28;20.45;;;5.97;;
11328;SDS011;5719;42.714;23.732;2022-08-21T09:48:57;14.50;;;5.82;;
11328;SDS011;5719;42.714;23.732;2022-08-21T09:51:28;10.60;;;4.88;;
11328;SDS011;5719;42.714;23.732;2022-08-21T09:53:58;7.55;;;4.95;;
11328;SDS011;5719;42.714;23.732;2022-08-21T09:56:51;11.32;;;5.07;;
11328;SDS011;5719;42.714;23.732;2022-08-21T09:59:35;11.95;;;5.15;;
11328;SDS011;5719;42.714;23.732;2022-08-21T10:02:07;11.27;;;5.28;;
11328;SDS011;5719;42.714;23.732;2022-08-21T10:04:57;12.00;;;5.97;;
11328;SDS011;5719;42.714;23.732;2022-08-21T10:07:29;15.10;;;5.73;;
11328;SDS011;5719;42.714;23.732;2022-08-21T10:09:58;8.18;;;4.85;;
11328;SDS011;5719;42.714;23.732;2022-08-21T10:12:28;24.00;;;5.22;;
11328;SDS011;5719;42.714;23.732;2022-08-21T10:15:08;10.32;;;5.28;;
11328;SDS011;5719;42.714;23.732;2022-08-21T10:17:45;11.85;;;5.72;;
11328;SDS011;5719;42.714;23.732;2022-08-21T10:20:22;13.75;;;5.10;;
11328;SDS011;5719;42.714;23.732;2022-08-21T10:23:06;9.18;;;4.80;;
11328;SDS011;5719;42.714;23.732;2022-08-21T10:25:48;15.18;;;5.82;;
11328;SDS011;5719;42.714;23.732;2022-08-21T10:28:20;9.55;;;5.38;;
11328;SDS011;5719;42.714;23.732;2022-08-21T10:30:56;12.40;;;4.78;;
11328;SDS011;5719;42.714;23.732;2022-08-21T10:33:28;9.95;;;5.40;;
11328;SDS011;5719;42.714;23.732;2022-08-21T10:36:08;12.15;;;5.32;;
11328;SDS011;5719;42.714;23.732;2022-08-21T10:38:42;9.13;;;4.85;;
11328;SDS011;5719;42.714;23.732;2022-08-21T10:41:22;9.93;;;5.55;;
11328;SDS011;5719;42.714;23.732;2022-08-21T10:44:00;13.18;;;5.03;;
11328;SDS011;5719;42.714;23.732;2022-08-21T10:46:45;11.13;;;5.43;;
11328;SDS011;5719;42.714;23.732;2022-08-21T10:49:22;11.45;;;5.47;;
11328;SDS011;5719;42.714;23.732;2022-08-21T10:52:08;9.73;;;5.45;;
11328;SDS011;5719;42.714;23.732;2022-08-21T10:54:49;10.85;;;5.28;;
11328;SDS011;5719;42.714;23.732;2022-08-21T10:57:20;13.38;;;5.38;;
11328;SDS011;5719;42.714;23.732;2022-08-21T10:59:55;15.15;;;5.43;;
11328;SDS011;5719;42.714;23.732;2022-08-21T11:02:35;10.63;;;5.35;;
11328;SDS011;5719;42.714;23.732;2022-08-21T11:05:08;9.35;;;5.00;;
11328;SDS011;5719;42.714;23.732;2022-08-21T11:07:45;15.50;;;6.25;;
11328;SDS011;5719;42.714;23.732;2022-08-21T11:10:18;11.63;;;5.25;;
11328;SDS011;5719;42.714;23.732;2022-08-21T11:12:51;11.57;;;5.47;;
11328;SDS011;5719;42.714;23.732;2022-08-21T11:15:29;12.45;;;5.63;;
11328;SDS011;5719;42.714;23.732;2022-08-21T11:18:06;9.90;;;5.28;;
11328;SDS011;5719;42.714;23.732;2022-08-21T11:20:46;10.43;;;5.93;;
11328;SDS011;5719;42.714;23.732;2022-08-21T11:23:22;11.40;;;5.60;;
11328;SDS011;5719;42.714;23.732;2022-08-21T11:25:53;13.63;;;6.38;;
11328;SDS011;5719;42.714;23.732;2022-08-21T11:28:26;13.25;;;5.18;;
11328;SDS011;5719;42.714;23.732;2022-08-21T11:31:00;8.02;;;5.07;;
11328;SDS011;5719;42.714;23.732;2022-08-21T11:33:50;9.05;;;5.03;;
11328;SDS011;5719;42.714;23.732;2022-08-21T11:36:30;14.18;;;5.57;;
11328;SDS011;5719;42.714;23.732;2022-08-21T11:39:13;7.88;;;5.18;;
11328;SDS011;5719;42.714;23.732;2022-08-21T11:41:47;13.02;;;5.60;;
11328;SDS011;5719;42.714;23.732;2022-08-21T11:44:23;9.95;;;5.30;;
11328;SDS011;5719;42.714;23.732;2022-08-21T11:47:05;9.02;;;4.93;;
11328;SDS011;5719;42.714;23.732;2022-08-21T11:49:45;11.40;;;5.63;;
11328;SDS011;5719;42.714;23.732;2022-08-21T11:52:20;10.48;;;5.32;;
11328;SDS011;5719;42.714;23.732;2022-08-21T11:54:57;15.00;;;5.60;;
11328;SDS011;5719;42.714;23.732;2022-08-21T11:57:29;11.30;;;5.07;;
11328;SDS011;5719;42.714;23.732;2022-08-21T12:00:03;10.88;;;5.30;;
11328;SDS011;5719;42.714;23.732;2022-08-21T12:02:34;9.77;;;4.93;;
11328;SDS011;5719;42.714;23.732;2022-08-21T12:05:05;10.50;;;5.00;;
11328;SDS011;5719;42.714;23.732;2022-08-21T12:07:36;10.88;;;5.00;;
11328;SDS011;5719;42.714;23.732;2022-08-21T12:10:07;8.38;;;5.18;;
11328;SDS011;5719;42.714;23.732;2022-08-21T12:12:38;12.65;;;5.13;;
11328;SDS011;5719;42.714;23.732;2022-08-21T12:15:24;8.05;;;4.63;;
11328;SDS011;5719;42.714;23.732;2022-08-21T12:17:56;10.80;;;5.00;;
11328;SDS011;5719;42.714;23.732;2022-08-21T12:20:35;9.35;;;5.65;;
11328;SDS011;5719;42.714;23.732;2022-08-21T12:23:15;15.75;;;5.55;;
11328;SDS011;5719;42.714;23.732;2022-08-21T12:26:11;11.43;;;5.32;;
11328;SDS011;5719;42.714;23.732;2022-08-21T12:28:46;15.68;;;5.53;;
11328;SDS011;5719;42.714;23.732;2022-08-21T12:31:17;7.68;;;4.70;;
11328;SDS011;5719;42.714;23.732;2022-08-21T12:33:50;12.32;;;5.30;;
11328;SDS011;5719;42.714;23.732;2022-08-21T12:38:52;13.13;;;5.20;;
11328;SDS011;5719;42.714;23.732;2022-08-21T12:41:27;9.82;;;5.15;;
11328;SDS011;5719;42.714;23.732;2022-08-21T12:43:57;9.68;;;5.25;;
11328;SDS011;5719;42.714;23.732;2022-08-21T12:46:30;11.73;;;5.10;;
11328;SDS011;5719;42.714;23.732;2022-08-21T12:49:06;14.25;;;5.38;;
11328;SDS011;5719;42.714;23.732;2022-08-21T12:51:48;8.02;;;5.47;;
11328;SDS011;5719;42.714;23.732;2022-08-21T12:54:23;8.43;;;5.30;;
11328;SDS011;5719;42.714;23.732;2022-08-21T12:56:57;10.85;;;5.28;;
11328;SDS011;5719;42.714;23.732;2022-08-21T12:59:26;12.73;;;5.88;;
11328;SDS011;5719;42.714;23.732;2022-08-21T13:01:53;7.57;;;4.70;;
11328;SDS011;5719;42.714;23.732;2022-08-21T13:04:22;10.48;;;5.50;;
11328;SDS011;5719;42.714;23.732;2022-08-21T13:06:57;10.75;;;5.50;;
11328;SDS011;5719;42.714;23.732;2022-08-21T13:09:26;8.32;;;5.35;;
11328;SDS011;5719;42.714;23.732;2022-08-21T13:11:57;12.32;;;5.72;;
11328;SDS011;5719;42.714;23.732;2022-08-21T13:14:27;10.20;;;5.65;;
11328;SDS011;5719;42.714;23.732;2022-08-21T13:17:00;8.63;;;5.35;;
11328;SDS011;5719;42.714;23.732;2022-08-21T13:19:31;10.45;;;5.57;;
11328;SDS011;5719;42.714;23.732;2022-08-21T13:21:59;12.77;;;5.82;;
11328;SDS011;5719;42.714;23.732;2022-08-21T13:24:26;13.77;;;5.88;;
11328;SDS011;5719;42.714;23.732;2022-08-21T13:26:57;9.85;;;5.60;;
11328;SDS011;5719;42.714;23.732;2022-08-21T13:29:27;12.65;;;6.20;;
11328;SDS011;5719;42.714;23.732;2022-08-21T13:31:55;13.25;;;6.90;;
11328;SDS011;5719;42.714;23.732;2022-08-21T13:34:34;11.00;;;7.18;;
11328;SDS011;5719;42.714;23.732;2022-08-21T13:37:08;16.05;;;6.93;;
11328;SDS011;5719;42.714;23.732;2022-08-21T13:39:38;9.93;;;6.47;;
11328;SDS011;5719;42.714;23.732;2022-08-21T13:42:08;14.70;;;6.72;;
11328;SDS011;5719;42.714;23.732;2022-08-21T13:44:40;18.67;;;7.05;;
11328;SDS011;5719;42.714;23.732;2022-08-21T13:47:10;10.63;;;6.45;;
11328;SDS011;5719;42.714;23.732;2022-08-21T13:49:40;11.35;;;6.45;;
11328;SDS011;5719;42.714;23.732;2022-08-21T13:52:13;14.70;;;6.30;;
11328;SDS011;5719;42.714;23.732;2022-08-21T13:54:42;16.00;;;6.70;;
11328;SDS011;5719;42.714;23.732;2022-08-21T13:57:17;15.57;;;6.65;;
11328;SDS011;5719;42.714;23.732;2022-08-21T13:59:47;15.35;;;6.80;;
11328;SDS011;5719;42.714;23.732;2022-08-21T14:02:16;17.83;;;6.15;;
11328;SDS011;5719;42.714;23.732;2022-08-21T14:04:49;13.90;;;6.45;;
11328;SDS011;5719;42.714;23.732;2022-08-21T14:07:21;13.95;;;6.00;;
11328;SDS011;5719;42.714;23.732;2022-08-21T14:09:52;12.23;;;6.20;;
11328;SDS011;5719;42.714;23.732;2022-08-21T14:12:25;10.45;;;5.93;;
11328;SDS011;5719;42.714;23.732;2022-08-21T14:14:56;12.68;;;5.72;;
11328;SDS011;5719;42.714;23.732;2022-08-21T14:17:29;10.35;;;4.72;;
11328;SDS011;5719;42.714;23.732;2022-08-21T14:20:00;5.65;;;4.47;;
11328;SDS011;5719;42.714;23.732;2022-08-21T14:22:30;7.13;;;4.72;;
11328;SDS011;5719;42.714;23.732;2022-08-21T14:25:08;10.50;;;4.55;;
11328;SDS011;5719;42.714;23.732;2022-08-21T14:27:40;8.38;;;4.32;;
11328;SDS011;5719;42.714;23.732;2022-08-21T14:30:16;12.27;;;4.57;;
11328;SDS011;5719;42.714;23.732;2022-08-21T14:32:46;9.27;;;4.68;;
11328;SDS011;5719;42.714;23.732;2022-08-21T14:35:13;10.32;;;5.03;;
11328;SDS011;5719;42.714;23.732;2022-08-21T14:37:42;10.63;;;5.18;;
11328;SDS011;5719;42.714;23.732;2022-08-21T14:40:11;11.43;;;5.22;;
11328;SDS011;5719;42.714;23.732;2022-08-21T14:42:41;10.55;;;5.20;;
11328;SDS011;5719;42.714;23.732;2022-08-21T14:45:12;9.45;;;5.07;;
11328;SDS011;5719;42.714;23.732;2022-08-21T14:47:41;12.48;;;5.25;;
11328;SDS011;5719;42.714;23.732;2022-08-21T14:50:09;11.15;;;4.82;;
11328;SDS011;5719;42.714;23.732;2022-08-21T14:52:36;12.40;;;4.57;;
11328;SDS011;5719;42.714;23.732;2022-08-21T14:55:04;8.32;;;4.68;;
11328;SDS011;5719;42.714;23.732;2022-08-21T14:57:35;12.68;;;4.90;;
11328;SDS011;5719;42.714;23.732;2022-08-21T15:00:05;8.98;;;5.13;;
11328;SDS011;5719;42.714;23.732;2022-08-21T15:02:34;10.32;;;5.40;;
11328;SDS011;5719;42.714;23.732;2022-08-21T15:05:01;9.63;;;4.63;;